Time;durP1;ratioP1;P1;durP2;ratioP2;P2;SDS_P1;SDS_P2;PMS_P1;PMS_P2;Temp;Humidity;BMP_temperature;BMP_pressure;BME280_temperature;BME280_humidity;BME280_pressure;Samples;Min_cycle;Max_cycle;Signal;HPM_P1;HPM_P2
2023/05/30 00:01:21;;;;;;;;;;;;;;;17.56;nan;102268.06;5044374;28;19921;-81
2023/05/30 00:03:47;;;;;;;;;;;;;;;17.50;nan;102278.06;5039733;28;20303;-81
2023/05/30 00:06:13;;;;;;;;;;;;;;;17.43;nan;102274.75;5044628;28;19921;-81
2023/05/30 00:08:39;;;;;;;;;;;;;;;17.39;nan;102269.00;5045424;28;20475;-81
2023/05/30 00:11:05;;;;;;;;;;;;;;;17.39;nan;102273.63;5044515;28;19921;-81
2023/05/30 00:13:32;;;;;;;;;;;;;;;17.37;nan;102281.19;5044880;28;20049;-81
2023/05/30 00:15:58;;;;;;;;;;;;;;;17.33;nan;102285.50;5044402;28;20003;-81
2023/05/30 00:18:23;;;;;;;;;;;;;;;17.26;nan;102287.59;5044562;28;20819;-81
2023/05/30 00:20:49;;;;;;;;;;;;;;;17.20;nan;102287.53;5041162;28;19942;-81
2023/05/30 00:23:15;;;;;;;;;;;;;;;17.14;nan;102287.72;5044545;28;20289;-81
2023/05/30 00:25:40;;;;;;;;;;;;;;;17.00;nan;102281.88;5041756;28;20086;-81
2023/05/30 00:28:07;;;;;;;;;;;;;;;16.87;nan;102287.69;5044494;28;20003;-81
2023/05/30 00:30:33;;;;;;;;;;;;;;;16.84;nan;102282.78;5043632;28;20254;-81
2023/05/30 00:32:58;;;;;;;;;;;;;;;16.89;nan;102280.16;5043237;28;20447;-81
2023/05/30 00:35:23;;;;;;;;;;;;;;;16.91;nan;102283.41;5042125;28;20003;-81
2023/05/30 00:37:49;;;;;;;;;;;;;;;16.90;nan;102285.31;5042200;28;19923;-81
2023/05/30 00:40:14;;;;;;;;;;;;;;;16.88;nan;102289.34;5042863;28;19923;-81
2023/05/30 00:42:39;;;;;;;;;;;;;;;16.88;nan;102281.22;5042907;28;19964;-81
2023/05/30 00:45:05;;;;;;;;;;;;;;;16.85;nan;102276.28;5038810;28;19943;-81
2023/05/30 00:47:31;;;;;;;;;;;;;;;16.80;nan;102281.66;5043281;28;20408;-81
2023/05/30 00:49:56;;;;;;;;;;;;;;;16.79;nan;102278.13;5041553;28;20587;-81
2023/05/30 00:52:21;;;;;;;;;;;;;;;16.78;nan;102279.19;5044204;28;20011;-81
2023/05/30 00:54:47;;;;;;;;;;;;;;;16.76;nan;102280.53;5044535;28;19917;-81
2023/05/30 00:57:13;;;;;;;;;;;;;;;16.70;nan;102276.13;5047373;28;20367;-81
2023/05/30 00:59:39;;;;;;;;;;;;;;;16.65;nan;102268.72;5045623;28;19978;-81
2023/05/30 01:02:05;;;;;;;;;;;;;;;16.58;nan;102279.72;5046523;28;19925;-81
2023/05/30 01:04:32;;;;;;;;;;;;;;;16.53;nan;102274.25;5048834;28;20011;-80
2023/05/30 01:06:58;;;;;;;;;;;;;;;16.48;nan;102274.19;5047727;28;19921;-81
2023/05/30 01:09:23;;;;;;;;;;;;;;;16.43;nan;102271.41;5046177;28;20018;-81
2023/05/30 01:11:48;;;;;;;;;;;;;;;16.41;nan;102273.56;5046837;28;19967;-81
2023/05/30 01:14:20;;;;;;;;;;;;;;;16.39;nan;102274.88;5052329;28;19960;-81
2023/05/30 01:16:57;;;;;;;;;;;;;;;16.34;nan;102289.16;5044381;28;20007;-81
2023/05/30 01:19:23;;;;;;;;;;;;;;;16.28;nan;102285.53;5046436;28;20016;-80
2023/05/30 01:21:54;;;;;;;;;;;;;;;16.23;nan;102281.94;5045053;28;20004;-81
2023/05/30 01:24:30;;;;;;;;;;;;;;;16.19;nan;102283.53;5046813;28;19927;-81
2023/05/30 01:27:11;;;;;;;;;;;;;;;16.15;nan;102285.06;5043102;28;20281;-81
2023/05/30 01:29:38;;;;;;;;;;;;;;;16.11;nan;102273.09;5046158;28;19921;-81
2023/05/30 01:32:04;;;;;;;;;;;;;;;16.09;nan;102281.47;5041045;28;20534;-80
2023/05/30 01:34:30;;;;;;;;;;;;;;;16.10;nan;102287.69;5045970;28;19924;-80
2023/05/30 01:36:55;;;;;;;;;;;;;;;16.11;nan;102292.84;5046505;28;19925;-81
2023/05/30 01:39:21;;;;;;;;;;;;;;;16.08;nan;102285.25;5042082;28;19921;-80
2023/05/30 01:41:56;;;;;;;;;;;;;;;16.04;nan;102288.69;5039284;28;20070;-81
2023/05/30 01:44:30;;;;;;;;;;;;;;;15.94;nan;102290.16;5043646;28;20528;-80
2023/05/30 01:47:17;;;;;;;;;;;;;;;15.89;nan;102289.28;5042533;28;21019;-81
2023/05/30 01:49:50;;;;;;;;;;;;;;;15.85;nan;102291.66;5044725;28;20357;-80
2023/05/30 01:52:17;;;;;;;;;;;;;;;15.87;nan;102288.69;5044722;28;19929;-81
2023/05/30 01:54:45;;;;;;;;;;;;;;;15.86;nan;102284.34;5042023;28;19929;-80
2023/05/30 01:57:12;;;;;;;;;;;;;;;15.82;nan;102291.31;5042799;28;19924;-81
2023/05/30 01:59:38;;;;;;;;;;;;;;;15.75;nan;102291.47;5045462;28;20484;-80
2023/05/30 02:02:03;;;;;;;;;;;;;;;15.71;nan;102282.22;5042966;28;19921;-81
2023/05/30 02:04:30;;;;;;;;;;;;;;;15.67;nan;102289.19;5046429;28;20482;-80
2023/05/30 02:06:55;;;;;;;;;;;;;;;15.64;nan;102290.50;5041890;28;20709;-81
2023/05/30 02:09:21;;;;;;;;;;;;;;;15.63;nan;102298.84;5045353;28;20007;-80
2023/05/30 02:11:46;;;;;;;;;;;;;;;15.58;nan;102296.81;5040801;28;20282;-80
2023/05/30 02:14:11;;;;;;;;;;;;;;;15.55;nan;102293.78;5044176;28;19917;-81
2023/05/30 02:16:37;;;;;;;;;;;;;;;15.52;nan;102297.00;5042889;28;19923;-80
2023/05/30 02:19:02;;;;;;;;;;;;;;;15.49;nan;102289.38;5039902;28;19925;-80
2023/05/30 02:21:27;;;;;;;;;;;;;;;15.45;nan;102291.75;5043390;28;19923;-80
2023/05/30 02:23:53;;;;;;;;;;;;;;;15.39;nan;102290.81;5043081;28;19920;-81
2023/05/30 02:26:18;;;;;;;;;;;;;;;15.35;nan;102292.38;5045165;28;19924;-81
2023/05/30 02:28:44;;;;;;;;;;;;;;;15.31;nan;102291.22;5044145;28;19970;-81
2023/05/30 02:31:09;;;;;;;;;;;;;;;15.27;nan;102292.78;5043160;28;19964;-81
2023/05/30 02:33:34;;;;;;;;;;;;;;;15.26;nan;102290.28;5042838;28;19916;-81
2023/05/30 02:36:00;;;;;;;;;;;;;;;15.25;nan;102291.34;5042991;28;19917;-81
2023/05/30 02:38:25;;;;;;;;;;;;;;;15.25;nan;102292.16;5044428;28;19960;-80
2023/05/30 02:40:51;;;;;;;;;;;;;;;15.26;nan;102299.25;5045493;28;19948;-81
2023/05/30 02:43:16;;;;;;;;;;;;;;;15.26;nan;102296.53;5045794;28;19924;-81
2023/05/30 02:45:41;;;;;;;;;;;;;;;15.24;nan;102298.63;5041960;28;20385;-81
2023/05/30 02:48:07;;;;;;;;;;;;;;;15.18;nan;102296.91;5042556;28;20351;-80
2023/05/30 02:50:32;;;;;;;;;;;;;;;15.11;nan;102304.34;5042718;28;19925;-81
2023/05/30 02:52:58;;;;;;;;;;;;;;;15.06;nan;102304.22;5046772;28;19998;-80
2023/05/30 02:55:23;;;;;;;;;;;;;;;15.03;nan;102300.13;5045109;28;19986;-80
2023/05/30 02:57:48;;;;;;;;;;;;;;;15.01;nan;102298.72;5035714;28;19924;-80
2023/05/30 03:00:15;;;;;;;;;;;;;;;14.97;nan;102303.78;5043600;28;19967;-81
2023/05/30 03:02:41;;;;;;;;;;;;;;;14.96;nan;102304.84;5040783;28;19924;-81
2023/05/30 03:05:07;;;;;;;;;;;;;;;14.94;nan;102306.97;5043358;28;20552;-80
2023/05/30 03:07:32;;;;;;;;;;;;;;;14.93;nan;102309.91;5043073;28;19920;-80
2023/05/30 03:09:58;;;;;;;;;;;;;;;14.90;nan;102308.53;5043544;28;19929;-81
2023/05/30 03:12:23;;;;;;;;;;;;;;;14.88;nan;102313.31;5042786;28;19923;-81
2023/05/30 03:14:48;;;;;;;;;;;;;;;14.89;nan;102319.53;5043085;28;20016;-81
2023/05/30 03:17:17;;;;;;;;;;;;;;;14.91;nan;102320.13;5042097;28;19924;-81
2023/05/30 03:19:42;;;;;;;;;;;;;;;14.92;nan;102319.06;5041900;28;20002;-80
2023/05/30 03:22:07;;;;;;;;;;;;;;;14.91;nan;102317.44;5038845;28;20288;-81
2023/05/30 03:24:33;;;;;;;;;;;;;;;14.84;nan;102322.13;5042802;28;20408;-81
2023/05/30 03:26:58;;;;;;;;;;;;;;;14.78;nan;102321.22;5043278;28;19920;-81
2023/05/30 03:29:23;;;;;;;;;;;;;;;14.75;nan;102319.81;5046109;28;20343;-81
2023/05/30 03:31:49;;;;;;;;;;;;;;;14.76;nan;102332.25;5043729;28;19948;-80
2023/05/30 03:34:15;;;;;;;;;;;;;;;14.80;nan;102322.59;5043210;28;19921;-81
2023/05/30 03:36:41;;;;;;;;;;;;;;;14.87;nan;102335.13;5058307;28;19927;-81
2023/05/30 03:39:06;;;;;;;;;;;;;;;14.92;nan;102332.56;5043868;28;19920;-81
2023/05/30 03:41:32;;;;;;;;;;;;;;;14.97;nan;102346.16;5043899;28;20693;-81
2023/05/30 03:43:57;;;;;;;;;;;;;;;15.02;nan;102340.84;5043447;28;19921;-81
2023/05/30 03:46:22;;;;;;;;;;;;;;;15.06;nan;102342.84;5042958;28;19962;-81
2023/05/30 03:48:48;;;;;;;;;;;;;;;15.09;nan;102347.78;5043449;28;19932;-81
2023/05/30 03:51:13;;;;;;;;;;;;;;;15.12;nan;102341.06;5040780;28;20177;-81
2023/05/30 03:53:38;;;;;;;;;;;;;;;15.14;nan;102347.06;5040303;28;20419;-81
2023/05/30 03:56:05;;;;;;;;;;;;;;;15.19;nan;102336.34;5042600;28;20427;-81
2023/05/30 03:58:30;;;;;;;;;;;;;;;15.23;nan;102342.09;5041333;28;19924;-81
2023/05/30 04:00:55;;;;;;;;;;;;;;;15.25;nan;102346.19;5041617;28;20328;-81
2023/05/30 04:03:21;;;;;;;;;;;;;;;15.34;nan;102343.94;5042904;28;19944;-81
2023/05/30 04:05:47;;;;;;;;;;;;;;;15.39;nan;102347.53;5045950;28;20300;-81
2023/05/30 04:08:12;;;;;;;;;;;;;;;15.46;nan;102352.81;5040714;28;19927;-81
2023/05/30 04:10:38;;;;;;;;;;;;;;;15.53;nan;102341.84;5041094;28;19929;-81
2023/05/30 04:13:03;;;;;;;;;;;;;;;15.59;nan;102343.59;5043660;28;20001;-81
2023/05/30 04:15:28;;;;;;;;;;;;;;;15.64;nan;102352.63;5042569;28;20066;-81
2023/05/30 04:17:53;;;;;;;;;;;;;;;15.70;nan;102354.34;5044219;28;20354;-81
2023/05/30 04:20:19;;;;;;;;;;;;;;;15.76;nan;102359.84;5046249;28;20519;-81
2023/05/30 04:22:44;;;;;;;;;;;;;;;15.79;nan;102357.47;5041860;28;19917;-81
2023/05/30 04:25:09;;;;;;;;;;;;;;;15.83;nan;102358.66;5042484;28;20325;-81
2023/05/30 04:27:35;;;;;;;;;;;;;;;15.81;nan;102363.47;5044172;28;20428;-81
2023/05/30 04:30:03;;;;;;;;;;;;;;;15.82;nan;102358.88;5045544;28;19924;-81
2023/05/30 04:32:33;;;;;;;;;;;;;;;15.87;nan;102359.78;5049253;28;19916;-81
2023/05/30 04:35:00;;;;;;;;;;;;;;;15.94;nan;102363.16;5045607;28;19928;-81
2023/05/30 04:37:27;;;;;;;;;;;;;;;16.02;nan;102368.16;5046491;28;19920;-81
2023/05/30 04:39:55;;;;;;;;;;;;;;;16.10;nan;102366.94;5045426;28;20031;-81
2023/05/30 04:42:26;;;;;;;;;;;;;;;16.19;nan;102370.06;5046181;28;19917;-81
2023/05/30 04:44:53;;;;;;;;;;;;;;;16.29;nan;102362.09;5045772;28;19959;-81
2023/05/30 04:47:21;;;;;;;;;;;;;;;16.37;nan;102367.09;5042143;28;19924;-81
2023/05/30 04:49:46;;;;;;;;;;;;;;;16.47;nan;102369.13;5046050;28;19964;-81
2023/05/30 04:52:12;;;;;;;;;;;;;;;16.58;nan;102379.84;5045069;28;19960;-81
2023/05/30 04:54:37;;;;;;;;;;;;;;;16.68;nan;102371.06;5058422;28;19923;-81
2023/05/30 04:57:02;;;;;;;;;;;;;;;16.73;nan;102373.06;5042412;28;19925;-81
2023/05/30 04:59:28;;;;;;;;;;;;;;;16.79;nan;102377.47;5042871;28;19969;-81
2023/05/30 05:01:53;;;;;;;;;;;;;;;16.88;nan;102375.97;5044422;28;19920;-81
2023/05/30 05:04:19;;;;;;;;;;;;;;;16.97;nan;102374.44;5044760;28;19923;-81
2023/05/30 05:06:44;;;;;;;;;;;;;;;17.06;nan;102372.97;5046938;28;20088;-81
2023/05/30 05:09:10;;;;;;;;;;;;;;;17.12;nan;102377.34;5046635;28;19967;-81
2023/05/30 05:11:36;;;;;;;;;;;;;;;17.21;nan;102377.72;5041643;28;20027;-80
2023/05/30 05:14:01;;;;;;;;;;;;;;;17.29;nan;102374.59;5042962;28;20012;-81
2023/05/30 05:16:27;;;;;;;;;;;;;;;17.40;nan;102372.78;5044780;28;19917;-81
2023/05/30 05:18:52;;;;;;;;;;;;;;;17.52;nan;102377.00;5040139;28;20360;-80
2023/05/30 05:21:17;;;;;;;;;;;;;;;17.67;nan;102383.66;5044351;28;20368;-81
2023/05/30 05:23:42;;;;;;;;;;;;;;;17.77;nan;102384.63;5040469;28;19929;-81
2023/05/30 05:26:08;;;;;;;;;;;;;;;17.93;nan;102387.44;5043180;28;19917;-81
2023/05/30 05:28:33;;;;;;;;;;;;;;;18.05;nan;102388.09;5045838;28;20394;-81
2023/05/30 05:30:58;;;;;;;;;;;;;;;18.20;nan;102390.94;5046092;28;20376;-81
2023/05/30 05:33:24;;;;;;;;;;;;;;;18.34;nan;102394.88;5045681;28;19923;-81
2023/05/30 05:35:50;;;;;;;;;;;;;;;18.54;nan;102391.47;5045958;28;19927;-82
2023/05/30 05:38:16;;;;;;;;;;;;;;;18.73;nan;102391.88;5044443;28;19920;-81
2023/05/30 05:40:42;;;;;;;;;;;;;;;18.87;nan;102389.53;5046217;28;19925;-81
2023/05/30 05:43:07;;;;;;;;;;;;;;;19.05;nan;102393.69;5041208;28;19920;-80
2023/05/30 05:45:32;;;;;;;;;;;;;;;19.20;nan;102396.44;5047919;28;19948;-81
2023/05/30 05:47:57;;;;;;;;;;;;;;;19.31;nan;102389.97;5043619;28;20011;-82
2023/05/30 05:50:23;;;;;;;;;;;;;;;19.46;nan;102400.09;5042767;28;20035;-81
2023/05/30 05:52:48;;;;;;;;;;;;;;;19.65;nan;102395.00;5042085;28;20312;-81
2023/05/30 05:55:14;;;;;;;;;;;;;;;19.79;nan;102387.94;5038458;28;20032;-82
2023/05/30 05:57:39;;;;;;;;;;;;;;;19.92;nan;102393.66;5040467;28;19924;-81
2023/05/30 06:00:05;;;;;;;;;;;;;;;20.09;nan;102398.84;5039984;28;19923;-82
2023/05/30 06:02:31;;;;;;;;;;;;;;;20.20;nan;102395.03;5042136;28;19924;-82
2023/05/30 06:04:56;;;;;;;;;;;;;;;20.39;nan;102398.00;5042673;28;19931;-82
2023/05/30 06:07:22;;;;;;;;;;;;;;;20.58;nan;102398.28;5042598;28;19958;-81
2023/05/30 06:09:47;;;;;;;;;;;;;;;20.76;nan;102407.78;5039474;28;19916;-81
2023/05/30 06:12:12;;;;;;;;;;;;;;;20.97;nan;102403.09;5041617;28;21275;-83
2023/05/30 06:14:38;;;;;;;;;;;;;;;21.11;nan;102404.13;5043496;28;20265;-82
2023/05/30 06:17:04;;;;;;;;;;;;;;;21.28;nan;102403.81;5040498;28;19921;-82
2023/05/30 06:19:29;;;;;;;;;;;;;;;21.37;nan;102408.41;5034677;28;19925;-81
2023/05/30 06:21:55;;;;;;;;;;;;;;;21.54;nan;102408.03;5042455;28;20397;-82
2023/05/30 06:24:20;;;;;;;;;;;;;;;21.75;nan;102407.91;5042581;28;19920;-82
2023/05/30 06:26:45;;;;;;;;;;;;;;;21.94;nan;102414.31;5045041;28;20625;-82
2023/05/30 06:29:10;;;;;;;;;;;;;;;22.15;nan;102415.00;5041364;28;20436;-82
2023/05/30 06:31:36;;;;;;;;;;;;;;;22.35;nan;102414.81;5043181;28;20006;-82
2023/05/30 06:34:01;;;;;;;;;;;;;;;22.52;nan;102417.13;5030411;28;19921;-81
2023/05/30 06:36:26;;;;;;;;;;;;;;;22.60;nan;102413.75;5046075;28;19916;-82
2023/05/30 06:38:53;;;;;;;;;;;;;;;22.75;nan;102418.25;5043454;28;19917;-81
2023/05/30 06:41:18;;;;;;;;;;;;;;;22.94;nan;102413.69;5046294;28;19928;-81
2023/05/30 06:43:43;;;;;;;;;;;;;;;23.14;nan;102418.09;5041751;28;20171;-81
2023/05/30 06:46:09;;;;;;;;;;;;;;;23.33;nan;102415.41;5044899;28;19917;-81
2023/05/30 06:48:34;;;;;;;;;;;;;;;23.51;nan;102412.69;5042758;28;20336;-82
2023/05/30 06:50:59;;;;;;;;;;;;;;;23.70;nan;102420.94;5040620;28;19928;-82
2023/05/30 06:53:25;;;;;;;;;;;;;;;23.88;nan;102419.31;5040904;28;19916;-81
2023/05/30 06:55:50;;;;;;;;;;;;;;;24.06;nan;102415.72;5039849;28;20211;-81
2023/05/30 06:58:16;;;;;;;;;;;;;;;24.21;nan;102419.31;5045851;28;19925;-81
2023/05/30 07:00:42;;;;;;;;;;;;;;;24.34;nan;102424.03;5042345;28;19921;-81
2023/05/30 07:03:07;;;;;;;;;;;;;;;24.48;nan;102429.56;5042776;28;19924;-81
2023/05/30 07:05:32;;;;;;;;;;;;;;;24.60;nan;102424.41;5039720;28;19917;-81
2023/05/30 07:07:58;;;;;;;;;;;;;;;24.69;nan;102422.59;5041755;28;19920;-81
2023/05/30 07:10:23;;;;;;;;;;;;;;;24.76;nan;102420.25;5037872;28;19921;-82
2023/05/30 07:12:48;;;;;;;;;;;;;;;24.87;nan;102432.66;5037528;28;19936;-81
2023/05/30 07:15:14;;;;;;;;;;;;;;;25.02;nan;102434.31;5041154;28;19925;-81
2023/05/30 07:17:39;;;;;;;;;;;;;;;25.13;nan;102434.91;5036686;28;19925;-82
2023/05/30 07:20:05;;;;;;;;;;;;;;;25.14;nan;102434.63;5042296;28;20288;-81
2023/05/30 07:22:30;;;;;;;;;;;;;;;25.25;nan;102436.00;5041660;28;19925;-81
2023/05/30 07:24:56;;;;;;;;;;;;;;;25.45;nan;102443.00;5037402;28;19932;-81
2023/05/30 07:27:21;;;;;;;;;;;;;;;25.59;nan;102438.28;5038804;28;19917;-81
2023/05/30 07:29:46;;;;;;;;;;;;;;;25.73;nan;102435.53;5045376;28;19924;-81
2023/05/30 07:32:12;;;;;;;;;;;;;;;25.85;nan;102429.47;5044794;28;20422;-81
2023/05/30 07:34:38;;;;;;;;;;;;;;;25.94;nan;102435.06;5042998;28;19917;-81
2023/05/30 07:37:03;;;;;;;;;;;;;;;25.99;nan;102441.22;5038099;28;19917;-81
2023/05/30 07:39:29;;;;;;;;;;;;;;;26.08;nan;102435.81;5040755;28;19924;-81
2023/05/30 07:41:54;;;;;;;;;;;;;;;26.08;nan;102439.38;5045114;28;19923;-81
2023/05/30 07:44:20;;;;;;;;;;;;;;;26.16;nan;102441.34;5034655;28;20561;-80
2023/05/30 07:46:45;;;;;;;;;;;;;;;26.22;nan;102450.31;5042044;28;19927;-80
2023/05/30 07:49:11;;;;;;;;;;;;;;;26.32;nan;102444.53;5039343;28;19921;-80
2023/05/30 07:51:36;;;;;;;;;;;;;;;26.44;nan;102457.72;5041277;28;19928;-80
2023/05/30 07:54:01;;;;;;;;;;;;;;;26.49;nan;102441.91;5037503;28;20362;-81
2023/05/30 07:56:27;;;;;;;;;;;;;;;26.57;nan;102442.25;5035528;28;19955;-80
2023/05/30 07:58:52;;;;;;;;;;;;;;;26.71;nan;102443.78;5044499;28;19924;-80
2023/05/30 08:01:18;;;;;;;;;;;;;;;26.82;nan;102447.09;5042585;28;19952;-81
2023/05/30 08:03:43;;;;;;;;;;;;;;;26.94;nan;102452.00;5044523;28;20011;-81
2023/05/30 08:06:08;;;;;;;;;;;;;;;27.06;nan;102447.53;5039233;28;20376;-80
2023/05/30 08:08:34;;;;;;;;;;;;;;;27.19;nan;102443.03;5038520;28;20037;-81
2023/05/30 08:10:59;;;;;;;;;;;;;;;27.20;nan;102452.09;5040263;28;19928;-80
2023/05/30 08:13:28;;;;;;;;;;;;;;;27.30;nan;102452.63;5035559;28;19917;-81
2023/05/30 08:15:54;;;;;;;;;;;;;;;27.35;nan;102448.91;5042344;28;20392;-80
2023/05/30 08:18:21;;;;;;;;;;;;;;;27.28;nan;102443.84;5039658;28;20414;-81
2023/05/30 08:20:46;;;;;;;;;;;;;;;27.28;nan;102449.34;5038591;28;20452;-81
2023/05/30 08:23:12;;;;;;;;;;;;;;;27.30;nan;102449.06;5038656;28;19927;-82
2023/05/30 08:25:42;;;;;;;;;;;;;;;27.46;nan;102449.38;5041161;28;19968;-82
2023/05/30 08:28:07;;;;;;;;;;;;;;;27.64;nan;102451.88;5042346;28;19916;-81
2023/05/30 08:30:33;;;;;;;;;;;;;;;27.82;nan;102452.69;5045006;28;20430;-82
2023/05/30 08:32:58;;;;;;;;;;;;;;;27.86;nan;102450.91;5043959;28;19986;-82
2023/05/30 08:35:23;;;;;;;;;;;;;;;27.95;nan;102457.22;5044094;28;20350;-80
2023/05/30 08:37:49;;;;;;;;;;;;;;;28.10;nan;102455.91;5044670;28;20396;-81
2023/05/30 08:40:15;;;;;;;;;;;;;;;28.25;nan;102460.94;5040551;28;19917;-84
2023/05/30 08:42:41;;;;;;;;;;;;;;;28.44;nan;102463.34;5043871;28;20144;-83
2023/05/30 08:45:07;;;;;;;;;;;;;;;28.60;nan;102458.09;5042756;28;20288;-79
2023/05/30 08:47:33;;;;;;;;;;;;;;;28.62;nan;102457.78;5044066;28;19917;-80
2023/05/30 08:50:01;;;;;;;;;;;;;;;28.63;nan;102462.16;5046593;28;19948;-81
2023/05/30 08:52:28;;;;;;;;;;;;;;;28.68;nan;102460.00;5039884;28;19929;-82
2023/05/30 08:54:59;;;;;;;;;;;;;;;28.78;nan;102450.59;5044156;28;19921;-82
2023/05/30 08:57:28;;;;;;;;;;;;;;;28.93;nan;102454.78;5040280;28;20609;-81
2023/05/30 08:59:55;;;;;;;;;;;;;;;29.10;nan;102447.22;5041108;28;19921;-82
2023/05/30 09:02:21;;;;;;;;;;;;;;;29.12;nan;102447.69;5042783;28;20011;-81
2023/05/30 09:04:47;;;;;;;;;;;;;;;29.14;nan;102450.09;5042855;28;20218;-81
2023/05/30 09:07:14;;;;;;;;;;;;;;;29.17;nan;102458.53;5037344;28;19924;-80
2023/05/30 09:09:41;;;;;;;;;;;;;;;29.15;nan;102455.28;5044826;28;19925;-81
2023/05/30 09:12:07;;;;;;;;;;;;;;;29.20;nan;102454.28;5045280;28;19925;-82
2023/05/30 09:14:33;;;;;;;;;;;;;;;29.33;nan;102450.47;5043326;28;19917;-82
2023/05/30 09:16:58;;;;;;;;;;;;;;;29.53;nan;102453.63;5044847;28;19920;-82
2023/05/30 09:19:24;;;;;;;;;;;;;;;29.67;nan;102452.22;5043253;28;19912;-82
2023/05/30 09:21:50;;;;;;;;;;;;;;;29.77;nan;102451.78;5046559;28;20300;-82
2023/05/30 09:24:15;;;;;;;;;;;;;;;29.83;nan;102446.88;5048118;28;19969;-81
2023/05/30 09:26:54;;;;;;;;;;;;;;;29.81;nan;102451.13;5047798;28;19920;-83
2023/05/30 09:29:20;;;;;;;;;;;;;;;29.90;nan;102454.63;5028355;28;19936;-81
2023/05/30 09:31:46;;;;;;;;;;;;;;;29.98;nan;102453.72;5047729;28;19986;-83
2023/05/30 09:34:17;;;;;;;;;;;;;;;30.10;nan;102459.31;5043291;28;19935;-82
2023/05/30 09:36:52;;;;;;;;;;;;;;;30.11;nan;102458.19;5048594;28;19932;-81
2023/05/30 09:39:17;;;;;;;;;;;;;;;30.14;nan;102457.50;5043956;28;19944;-83
2023/05/30 09:41:44;;;;;;;;;;;;;;;30.21;nan;102460.53;5049540;28;20384;-82
2023/05/30 09:44:10;;;;;;;;;;;;;;;30.37;nan;102452.41;5047277;28;19990;-83
2023/05/30 09:46:37;;;;;;;;;;;;;;;30.45;nan;102465.31;5046631;28;20385;-82
2023/05/30 09:49:12;;;;;;;;;;;;;;;30.56;nan;102460.16;5044213;28;19935;-81
2023/05/30 09:51:37;;;;;;;;;;;;;;;30.59;nan;102462.22;5047415;28;20019;-81
2023/05/30 09:54:04;;;;;;;;;;;;;;;30.60;nan;102469.38;5045837;28;20015;-81
2023/05/30 09:56:29;;;;;;;;;;;;;;;30.70;nan;102468.94;5042610;28;19975;-80
2023/05/30 09:59:01;;;;;;;;;;;;;;;30.74;nan;102469.88;5044562;28;19917;-82
2023/05/30 10:01:34;;;;;;;;;;;;;;;30.77;nan;102469.19;5043779;28;19925;-81
2023/05/30 10:03:59;;;;;;;;;;;;;;;30.82;nan;102468.97;5037172;28;20372;-81
2023/05/30 10:06:25;;;;;;;;;;;;;;;30.94;nan;102468.16;5045866;28;19927;-82
2023/05/30 10:08:50;;;;;;;;;;;;;;;31.10;nan;102471.88;5043284;28;19921;-81
2023/05/30 10:11:16;;;;;;;;;;;;;;;31.24;nan;102471.53;5042634;28;19924;-81
2023/05/30 10:13:41;;;;;;;;;;;;;;;31.26;nan;102469.22;5046431;28;20034;-81
2023/05/30 10:16:17;;;;;;;;;;;;;;;31.29;nan;102482.38;5044122;28;20396;-80
2023/05/30 10:18:51;;;;;;;;;;;;;;;31.24;nan;102479.84;5044695;28;20411;-80
2023/05/30 10:21:17;;;;;;;;;;;;;;;31.22;nan;102473.81;5041699;28;19927;-81
2023/05/30 10:23:43;;;;;;;;;;;;;;;31.27;nan;102473.59;5043586;28;20017;-81
2023/05/30 10:26:11;;;;;;;;;;;;;;;31.19;nan;102475.34;5039244;28;20366;-82
2023/05/30 10:28:36;;;;;;;;;;;;;;;31.22;nan;102469.09;5038820;28;20077;-82
2023/05/30 10:31:03;;;;;;;;;;;;;;;31.33;nan;102471.41;5042691;28;19925;-79
2023/05/30 10:33:31;;;;;;;;;;;;;;;31.38;nan;102466.41;5043607;28;20471;-80
2023/05/30 10:35:57;;;;;;;;;;;;;;;31.49;nan;102462.03;5042401;28;20047;-82
2023/05/30 10:38:23;;;;;;;;;;;;;;;31.60;nan;102464.28;5040058;28;19920;-82
2023/05/30 10:41:15;;;;;;;;;;;;;;;31.74;nan;102450.88;5037716;28;20414;-82
2023/05/30 10:43:56;;;;;;;;;;;;;;;31.96;nan;102464.22;5028434;28;19921;-82
2023/05/30 10:46:33;;;;;;;;;;;;;;;32.05;nan;102458.50;5038654;28;19986;-82
2023/05/30 10:49:01;;;;;;;;;;;;;;;32.19;nan;102447.81;5038187;28;19987;-79
2023/05/30 10:51:26;;;;;;;;;;;;;;;32.25;nan;102453.91;5039580;28;21472;-81
2023/05/30 10:53:51;;;;;;;;;;;;;;;32.28;nan;102442.91;5039033;28;19928;-81
2023/05/30 10:56:26;;;;;;;;;;;;;;;32.30;nan;102443.38;5035719;28;19932;-81
2023/05/30 10:58:52;;;;;;;;;;;;;;;32.43;nan;102433.00;5036174;28;20403;-81
2023/05/30 11:01:27;;;;;;;;;;;;;;;32.16;nan;102441.00;5037614;28;19932;-82
2023/05/30 11:04:01;;;;;;;;;;;;;;;32.15;nan;102439.41;5037796;28;19972;-84
2023/05/30 11:06:28;;;;;;;;;;;;;;;32.23;nan;102448.72;5041755;28;19925;-82
2023/05/30 11:08:53;;;;;;;;;;;;;;;32.39;nan;102446.00;5041487;28;19986;-83
2023/05/30 11:11:19;;;;;;;;;;;;;;;32.51;nan;102450.66;5042208;28;20343;-83
2023/05/30 11:13:46;;;;;;;;;;;;;;;32.69;nan;102451.91;5038442;28;20031;-82
2023/05/30 11:16:24;;;;;;;;;;;;;;;32.83;nan;102451.47;5039470;28;19924;-80
2023/05/30 11:18:53;;;;;;;;;;;;;;;32.95;nan;102451.38;5038468;28;19921;-83
2023/05/30 11:21:37;;;;;;;;;;;;;;;33.15;nan;102449.44;5037837;28;20007;-83
2023/05/30 11:24:04;;;;;;;;;;;;;;;33.18;nan;102452.31;5035981;28;19921;-81
2023/05/30 11:26:49;;;;;;;;;;;;;;;33.26;nan;102453.28;5040638;28;19932;-82
2023/05/30 11:29:33;;;;;;;;;;;;;;;33.24;nan;102452.84;5039642;28;20023;-82
2023/05/30 11:31:59;;;;;;;;;;;;;;;33.39;nan;102443.66;5039499;28;19925;-83
2023/05/30 11:34:25;;;;;;;;;;;;;;;33.56;nan;102442.44;5038348;28;19936;-82
2023/05/30 11:36:50;;;;;;;;;;;;;;;33.67;nan;102440.69;5036379;28;19924;-84
2023/05/30 11:39:18;;;;;;;;;;;;;;;33.85;nan;102447.44;5039949;28;19917;-81
2023/05/30 11:41:43;;;;;;;;;;;;;;;33.94;nan;102445.25;5037630;28;19968;-81
2023/05/30 11:44:09;;;;;;;;;;;;;;;34.04;nan;102437.47;5040707;28;20007;-81
2023/05/30 11:46:34;;;;;;;;;;;;;;;34.07;nan;102443.09;5040461;28;20393;-82
2023/05/30 11:49:03;;;;;;;;;;;;;;;34.12;nan;102440.03;5041690;28;19928;-80
2023/05/30 11:51:30;;;;;;;;;;;;;;;34.08;nan;102438.34;5038621;28;20039;-81
2023/05/30 11:53:56;;;;;;;;;;;;;;;34.10;nan;102442.38;5037255;28;19921;-83
2023/05/30 11:56:21;;;;;;;;;;;;;;;34.23;nan;102437.44;5038547;28;19928;-82
2023/05/30 11:58:50;;;;;;;;;;;;;;;34.35;nan;102437.31;5039211;28;20028;-84
2023/05/30 12:01:16;;;;;;;;;;;;;;;34.45;nan;102431.09;5036964;28;19943;-82
2023/05/30 12:03:43;;;;;;;;;;;;;;;34.58;nan;102434.50;5037253;28;20388;-82
2023/05/30 12:06:12;;;;;;;;;;;;;;;34.64;nan;102435.78;5038153;28;19930;-83
2023/05/30 12:08:47;;;;;;;;;;;;;;;34.65;nan;102436.59;5041298;28;19932;-82
2023/05/30 12:11:13;;;;;;;;;;;;;;;34.67;nan;102437.84;5041932;28;19931;-82
2023/05/30 12:13:38;;;;;;;;;;;;;;;34.72;nan;102428.38;5039098;28;19921;-83
2023/05/30 12:16:04;;;;;;;;;;;;;;;34.72;nan;102431.16;5040039;28;19982;-82
2023/05/30 12:18:31;;;;;;;;;;;;;;;34.79;nan;102434.03;5042237;28;19974;-82
2023/05/30 12:20:58;;;;;;;;;;;;;;;34.80;nan;102433.66;5036638;28;19924;-82
2023/05/30 12:23:24;;;;;;;;;;;;;;;34.83;nan;102434.88;5038279;28;19927;-83
2023/05/30 12:25:51;;;;;;;;;;;;;;;34.89;nan;102430.66;5042231;28;19931;-82
2023/05/30 12:28:16;;;;;;;;;;;;;;;34.98;nan;102431.19;5037411;28;19927;-83
2023/05/30 12:30:42;;;;;;;;;;;;;;;35.08;nan;102441.69;5040216;28;19925;-82
2023/05/30 12:33:24;;;;;;;;;;;;;;;35.15;nan;102440.97;5042285;28;20416;-82
2023/05/30 12:35:53;;;;;;;;;;;;;;;35.14;nan;102434.59;5043534;28;19920;-82
2023/05/30 12:38:18;;;;;;;;;;;;;;;35.16;nan;102428.66;5038711;28;19931;-83
2023/05/30 12:40:47;;;;;;;;;;;;;;;35.12;nan;102420.25;5036741;28;19924;-83
2023/05/30 12:43:13;;;;;;;;;;;;;;;35.21;nan;102433.09;5038818;28;19952;-83
2023/05/30 12:45:39;;;;;;;;;;;;;;;35.21;nan;102435.91;5043665;28;19920;-83
2023/05/30 12:48:04;;;;;;;;;;;;;;;35.22;nan;102426.34;5044060;28;20429;-83
2023/05/30 12:50:30;;;;;;;;;;;;;;;35.27;nan;102429.59;5043044;28;19967;-82
2023/05/30 12:52:55;;;;;;;;;;;;;;;35.35;nan;102422.97;5040981;28;20447;-80
2023/05/30 12:55:20;;;;;;;;;;;;;;;35.29;nan;102418.09;5042252;28;19920;-81